Time;durP1;ratioP1;P1;durP2;ratioP2;P2;SDS_P1;SDS_P2;PMS_P1;PMS_P2;Temp;Humidity;BMP_temperature;BMP_pressure;BME280_temperature;BME280_humidity;BME280_pressure;Samples;Min_cycle;Max_cycle;Signal;HPM_P1;HPM_P2
2022/01/21 00:06:29;;;;;;;7.82;1.80;;;1.30;99.90;;;;;;6752966;88;20203;-75
2022/01/21 00:16:29;;;;;;;7.65;1.67;;;1.20;99.90;;;;;;6749004;88;20214;-75
2022/01/21 00:36:49;;;;;;;12.25;2.30;;;1.30;99.90;;;;;;6748216;88;20168;-75
2022/01/21 00:46:50;;;;;;;12.88;2.45;;;1.30;99.90;;;;;;6751364;88;20225;-75
2022/01/21 00:56:50;;;;;;;13.25;2.00;;;1.40;99.90;;;;;;6751307;88;20278;-74
2022/01/21 01:06:51;;;;;;;12.43;2.20;;;1.50;99.90;;;;;;6760597;88;20200;-75
2022/01/21 01:58:21;;;;;;;8.68;2.33;;;1.10;99.90;;;;;;6717521;88;20180;-74
2022/01/21 02:08:21;;;;;;;11.68;2.50;;;1.10;99.90;;;;;;6756078;88;20611;-75
2022/01/21 02:28:43;;;;;;;9.80;2.55;;;1.10;99.90;;;;;;6754758;88;20928;-75
2022/01/21 02:38:43;;;;;;;12.23;2.90;;;1.20;99.90;;;;;;6753101;88;20250;-75
2022/01/21 02:48:44;;;;;;;15.75;3.15;;;1.20;99.90;;;;;;6743582;87;20288;-75
2022/01/21 02:58:47;;;;;;;13.05;2.90;;;1.30;99.90;;;;;;6752714;88;20198;-75
2022/01/21 03:08:49;;;;;;;13.70;2.87;;;1.30;99.90;;;;;;6753874;88;20191;-75
2022/01/21 03:18:50;;;;;;;14.18;3.15;;;1.30;99.90;;;;;;6755037;88;20217;-75
2022/01/21 03:28:56;;;;;;;10.90;2.70;;;1.30;99.90;;;;;;6753259;88;20276;-75
2022/01/21 03:38:57;;;;;;;9.20;2.75;;;1.40;99.90;;;;;;6754859;88;20279;-75
2022/01/21 03:48:58;;;;;;;19.60;3.05;;;1.50;99.90;;;;;;6755031;88;20216;-74
2022/01/21 03:58:58;;;;;;;13.45;2.67;;;1.40;99.90;;;;;;6755715;88;20185;-75
2022/01/21 04:08:59;;;;;;;13.48;2.50;;;1.60;99.90;;;;;;6763560;88;20294;-75
2022/01/21 04:18:59;;;;;;;18.25;2.40;;;1.60;99.90;;;;;;6755869;88;20181;-74
2022/01/21 04:29:00;;;;;;;9.25;2.47;;;1.70;99.90;;;;;;6756037;88;20223;-74
2022/01/21 04:39:03;;;;;;;10.73;2.33;;;1.70;99.90;;;;;;6755939;88;20667;-76
2022/01/21 04:49:04;;;;;;;10.70;2.05;;;1.50;99.90;;;;;;6755979;77;20658;-74
2022/01/21 04:59:05;;;;;;;8.77;2.22;;;1.50;99.90;;;;;;6748052;87;20313;-73
2022/01/21 05:09:06;;;;;;;11.38;2.17;;;1.70;99.90;;;;;;6758791;87;20233;-73
2022/01/21 05:19:14;;;;;;;14.60;2.28;;;1.70;99.90;;;;;;6763391;87;20640;-74
2022/01/21 05:29:14;;;;;;;7.78;2.25;;;1.80;99.90;;;;;;6763607;87;20164;-74
2022/01/21 05:39:17;;;;;;;11.32;2.40;;;1.80;99.90;;;;;;6762898;87;20216;-74
2022/01/21 05:49:17;;;;;;;6.85;2.12;;;1.80;99.90;;;;;;6759336;87;20297;-74
2022/01/21 05:59:18;;;;;;;10.73;2.67;;;1.80;99.90;;;;;;6768987;87;20712;-74
2022/01/21 06:09:18;;;;;;;12.32;2.85;;;1.80;99.90;;;;;;6763644;87;20691;-74
2022/01/21 06:19:19;;;;;;;14.27;2.78;;;1.80;99.90;;;;;;6780811;87;20285;-73
2022/01/21 06:29:19;;;;;;;12.98;2.97;;;1.80;99.90;;;;;;6767624;87;20221;-76
2022/01/21 06:39:20;;;;;;;10.23;2.78;;;1.80;99.90;;;;;;6760663;87;20593;-74
2022/01/21 06:49:21;;;;;;;13.25;2.67;;;1.90;99.90;;;;;;6761171;87;20794;-75
2022/01/21 06:59:21;;;;;;;13.88;3.17;;;1.80;99.90;;;;;;6764906;87;20714;-74
2022/01/21 07:09:22;;;;;;;13.57;3.78;;;1.80;99.90;;;;;;6765496;87;20815;-74
2022/01/21 07:19:22;;;;;;;11.07;3.20;;;1.90;99.90;;;;;;6766403;87;20183;-74
2022/01/21 07:29:23;;;;;;;14.30;3.30;;;1.90;99.90;;;;;;6772182;87;20203;-74
2022/01/21 07:39:24;;;;;;;8.32;2.40;;;2.00;99.90;;;;;;6765004;87;20224;-74
2022/01/21 07:49:24;;;;;;;18.77;3.78;;;2.00;99.90;;;;;;6762263;87;20241;-75
2022/01/21 07:59:25;;;;;;;13.23;3.03;;;2.00;99.90;;;;;;6768035;87;20197;-75
2022/01/21 08:09:25;;;;;;;13.30;3.30;;;2.20;99.90;;;;;;6766132;87;20232;-75
2022/01/21 08:19:26;;;;;;;11.63;3.15;;;2.30;99.90;;;;;;6766381;87;20221;-76
2022/01/21 08:29:26;;;;;;;12.88;3.47;;;2.30;99.90;;;;;;6762459;87;20175;-73
2022/01/21 08:39:28;;;;;;;15.27;3.55;;;2.40;99.90;;;;;;6765640;87;20190;-74
2022/01/21 08:49:28;;;;;;;9.93;3.35;;;2.50;99.90;;;;;;6765412;87;20222;-75
2022/01/21 08:59:31;;;;;;;16.30;3.70;;;2.60;99.90;;;;;;6760098;87;20251;-76
2022/01/21 09:09:31;;;;;;;13.82;4.03;;;2.60;99.90;;;;;;6769917;87;20294;-77
2022/01/21 09:19:32;;;;;;;12.20;4.10;;;2.70;99.90;;;;;;6769927;87;20275;-78
2022/01/21 09:29:34;;;;;;;15.25;3.85;;;2.80;99.90;;;;;;6768800;87;20767;-77
2022/01/21 09:39:35;;;;;;;10.75;3.60;;;3.00;99.90;;;;;;6777075;87;20675;-78
2022/01/21 09:49:40;;;;;;;9.93;3.65;;;3.10;99.90;;;;;;6769175;87;20282;-78
2022/01/21 09:59:41;;;;;;;17.40;3.73;;;3.30;99.90;;;;;;6767051;87;20195;-79
2022/01/21 10:09:43;;;;;;;11.93;4.22;;;3.50;99.90;;;;;;6770274;87;20317;-75
2022/01/21 10:19:47;;;;;;;13.13;3.85;;;3.60;99.90;;;;;;6768806;87;20215;-76
2022/01/21 10:29:48;;;;;;;11.60;3.92;;;3.80;99.90;;;;;;6778249;87;20187;-75
2022/01/21 10:39:55;;;;;;;13.32;4.03;;;4.10;99.90;;;;;;6769201;87;20205;-74
2022/01/21 11:00:03;;;;;;;10.48;3.62;;;4.30;99.90;;;;;;6734532;88;20288;-75
2022/01/21 11:10:04;;;;;;;8.52;3.60;;;4.30;99.90;;;;;;6741068;88;20708;-76
2022/01/21 11:20:07;;;;;;;11.95;3.50;;;4.50;99.90;;;;;;6745508;87;20196;-75
2022/01/21 11:30:08;;;;;;;8.95;3.75;;;4.70;99.90;;;;;;6743856;87;20415;-76
2022/01/21 11:40:09;;;;;;;9.73;3.97;;;4.80;99.90;;;;;;6740336;87;20189;-76
2022/01/21 11:50:10;;;;;;;9.15;2.83;;;5.10;99.90;;;;;;6740846;87;20228;-75
2022/01/21 12:00:33;;;;;;;8.50;2.72;;;5.30;99.90;;;;;;6740625;88;20220;-75
2022/01/21 12:10:42;;;;;;;11.18;2.47;;;5.20;99.90;;;;;;6737997;87;20191;-74
2022/01/21 12:20:43;;;;;;;7.60;2.85;;;5.10;99.90;;;;;;6738454;87;20277;-75
2022/01/21 12:30:53;;;;;;;14.30;2.47;;;5.20;99.90;;;;;;6739093;87;20304;-75
2022/01/21 12:41:29;;;;;;;10.43;2.20;;;5.30;99.90;;;;;;6747466;88;20180;-75
2022/01/21 13:01:38;;;;;;;9.13;2.50;;;5.90;99.90;;;;;;6757460;87;20269;-74
2022/01/21 13:11:54;;;;;;;8.50;2.40;;;5.70;99.90;;;;;;6749474;87;20282;-75
2022/01/21 13:21:54;;;;;;;6.10;2.00;;;5.30;99.90;;;;;;6746245;88;20218;-74
2022/01/21 13:31:59;;;;;;;8.00;2.05;;;5.00;99.90;;;;;;6746034;87;20303;-74
2022/01/21 13:42:16;;;;;;;8.13;2.42;;;4.90;99.90;;;;;;6747063;87;20351;-74
2022/01/21 13:52:16;;;;;;;13.15;3.37;;;4.90;99.90;;;;;;6747882;87;20219;-74
2022/01/21 14:02:18;;;;;;;12.32;3.47;;;4.70;99.90;;;;;;6740680;87;20725;-74
2022/01/21 14:12:19;;;;;;;9.93;3.85;;;4.50;99.90;;;;;;6745765;87;20732;-73
2022/01/21 14:22:20;;;;;;;17.25;5.10;;;4.40;99.90;;;;;;6747970;88;20233;-74
2022/01/21 14:32:39;;;;;;;18.35;5.18;;;4.30;99.90;;;;;;6743663;88;20328;-74
2022/01/21 14:42:39;;;;;;;11.25;4.30;;;4.30;99.90;;;;;;6742775;88;20442;-74
2022/01/21 14:52:47;;;;;;;13.35;5.05;;;4.30;99.90;;;;;;6738235;88;20270;-74
2022/01/21 15:02:47;;;;;;;14.23;5.47;;;4.40;99.90;;;;;;6746694;88;20352;-74
2022/01/21 15:23:08;;;;;;;18.40;7.07;;;4.40;99.90;;;;;;6745246;88;20268;-75
2022/01/21 15:33:08;;;;;;;18.90;7.18;;;4.30;99.90;;;;;;6745488;88;20207;-74
2022/01/21 15:43:09;;;;;;;21.50;8.55;;;4.20;99.90;;;;;;6745861;88;20279;-73
2022/01/21 15:53:10;;;;;;;18.40;9.00;;;4.20;99.90;;;;;;6743072;88;20208;-75
2022/01/21 16:03:11;;;;;;;18.55;8.63;;;4.20;99.90;;;;;;6749296;87;20188;-76
2022/01/21 16:13:11;;;;;;;19.60;8.55;;;4.30;99.90;;;;;;6739170;88;20247;-74
2022/01/21 16:23:14;;;;;;;17.85;9.82;;;4.30;99.90;;;;;;6739407;88;20201;-73
2022/01/21 16:33:15;;;;;;;22.70;10.63;;;4.30;99.90;;;;;;6745042;88;20181;-74
2022/01/21 16:43:16;;;;;;;22.42;10.68;;;4.30;99.90;;;;;;6743112;88;20280;-73
2022/01/21 16:53:37;;;;;;;21.70;11.07;;;4.40;99.90;;;;;;6749159;77;20382;-76
2022/01/21 17:03:37;;;;;;;27.02;12.52;;;4.40;99.90;;;;;;6741014;88;20689;-76
2022/01/21 17:13:38;;;;;;;27.83;12.32;;;4.40;99.90;;;;;;6736085;88;20319;-76
2022/01/21 17:23:39;;;;;;;28.98;13.30;;;4.40;99.90;;;;;;6727079;88;20193;-76
2022/01/21 17:33:39;;;;;;;27.55;14.23;;;4.40;99.90;;;;;;6728338;88;20664;-76
2022/01/21 17:43:40;;;;;;;33.20;15.27;;;4.50;99.90;;;;;;6725883;88;20217;-76
2022/01/21 17:53:41;;;;;;;29.05;14.18;;;4.50;99.90;;;;;;6727952;88;20245;-76
2022/01/21 18:03:42;;;;;;;30.45;13.52;;;4.50;99.90;;;;;;6733591;88;20204;-77
2022/01/21 18:13:42;;;;;;;24.75;12.13;;;4.60;99.90;;;;;;6728911;88;20609;-77
2022/01/21 18:23:43;;;;;;;24.77;11.18;;;4.70;99.90;;;;;;6735233;88;20690;-76
2022/01/21 18:33:44;;;;;;;23.27;10.55;;;4.70;99.90;;;;;;6736754;88;20189;-77
2022/01/21 18:43:44;;;;;;;25.25;10.73;;;4.70;99.90;;;;;;6734770;88;20749;-77
2022/01/21 18:53:46;;;;;;;27.48;10.82;;;4.80;99.90;;;;;;6739216;88;20204;-77
2022/01/21 19:03:52;;;;;;;31.05;13.25;;;4.90;99.90;;;;;;6737875;88;20776;-77
2022/01/21 19:13:52;;;;;;;23.85;10.40;;;4.80;99.90;;;;;;6730956;88;20263;-77
2022/01/21 19:23:57;;;;;;;28.00;12.57;;;4.90;99.90;;;;;;6734823;88;20232;-77
2022/01/21 19:33:57;;;;;;;23.98;11.15;;;4.80;99.90;;;;;;6735966;88;20327;-77
2022/01/21 19:43:58;;;;;;;21.90;10.27;;;4.70;99.90;;;;;;6736535;88;20189;-77
2022/01/21 19:53:59;;;;;;;24.37;10.53;;;4.60;99.90;;;;;;6741853;88;20190;-77
2022/01/21 20:24:25;;;;;;;31.55;11.45;;;4.60;99.90;;;;;;6736407;88;20189;-77
2022/01/21 20:34:26;;;;;;;26.70;10.80;;;4.60;99.90;;;;;;6733931;88;20692;-77
2022/01/21 20:44:28;;;;;;;27.45;10.48;;;4.60;99.90;;;;;;6732707;88;20196;-77
2022/01/21 20:54:28;;;;;;;21.80;9.73;;;4.60;99.90;;;;;;6735106;88;20206;-77
2022/01/21 21:04:29;;;;;;;24.00;8.77;;;4.80;99.90;;;;;;6731186;88;20174;-77
2022/01/21 21:14:45;;;;;;;23.95;9.43;;;4.60;99.90;;;;;;6732032;88;20222;-77
2022/01/21 21:24:50;;;;;;;14.82;6.12;;;4.60;99.90;;;;;;6736106;88;20185;-77
2022/01/21 22:16:56;;;;;;;11.10;3.22;;;4.40;99.90;;;;;;6737365;88;20759;-77
2022/01/21 23:07:39;;;;;;;22.37;6.80;;;4.40;99.90;;;;;;6740846;88;20283;-74
2022/01/21 23:17:45;;;;;;;17.70;6.78;;;4.30;99.90;;;;;;6756003;88;20310;-77
2022/01/21 23:27:54;;;;;;;24.20;7.73;;;4.30;99.90;;;;;;6739806;88;20708;-76
2022/01/21 23:38:15;;;;;;;17.37;7.03;;;4.30;99.90;;;;;;6750803;88;20223;-77
2022/01/21 23:48:17;;;;;;;16.80;6.22;;;4.30;99.90;;;;;;6754080;88;20330;-77
2022/01/21 23:58:17;;;;;;;23.42;6.90;;;4.20;99.90;;;;;;6753968;88;20220;-76
